createdAt,value
2018-02-27T00:00:55.361Z,4.87
2018-02-27T00:03:23.506Z,4.40
2018-02-27T00:05:51.674Z,4.60
2018-02-27T00:08:19.816Z,4.35
2018-02-27T00:10:47.986Z,5.15
2018-02-27T00:13:16.159Z,4.75
2018-02-27T00:15:44.310Z,4.68
2018-02-27T00:18:12.451Z,5.05
2018-02-27T00:20:40.604Z,4.47
2018-02-27T00:23:08.746Z,4.70
2018-02-27T00:25:36.923Z,4.68
2018-02-27T00:28:05.093Z,4.70
2018-02-27T00:30:33.239Z,4.43
2018-02-27T00:33:01.419Z,4.95
2018-02-27T00:35:29.568Z,5.72
2018-02-27T00:37:58.506Z,5.10
2018-02-27T00:40:26.671Z,5.00
2018-02-27T00:42:54.839Z,4.95
2018-02-27T00:45:23.035Z,4.75
2018-02-27T00:47:51.199Z,5.30
2018-02-27T00:50:19.593Z,4.85
2018-02-27T00:52:47.729Z,4.97
2018-02-27T00:55:16.282Z,5.40
2018-02-27T00:57:45.212Z,4.90
2018-02-27T01:00:13.354Z,5.30
2018-02-27T01:02:42.299Z,5.15
2018-02-27T01:05:10.443Z,4.32
2018-02-27T01:07:38.590Z,5.32
2018-02-27T01:10:07.538Z,5.05
2018-02-27T01:12:35.673Z,5.25
2018-02-27T01:15:03.809Z,5.60
2018-02-27T01:17:32.751Z,5.18
2018-02-27T01:20:00.891Z,5.93
2018-02-27T01:22:29.038Z,4.97
2018-02-27T01:24:57.206Z,4.57
2018-02-27T01:27:25.350Z,4.70
2018-02-27T01:29:54.541Z,4.45
2018-02-27T01:32:22.717Z,6.05
2018-02-27T01:34:50.856Z,5.03
2018-02-27T01:37:18.997Z,4.70
2018-02-27T01:39:47.954Z,6.12
2018-02-27T01:42:16.094Z,5.40
2018-02-27T01:44:44.233Z,5.72
2018-02-27T01:47:12.399Z,5.00
2018-02-27T01:49:40.550Z,4.35
2018-02-27T01:52:08.707Z,5.35
2018-02-27T01:54:36.874Z,5.45
2018-02-27T01:57:05.019Z,5.03
2018-02-27T01:59:33.934Z,6.57
2018-02-27T02:02:02.131Z,6.28
2018-02-27T02:04:30.274Z,5.32
2018-02-27T02:06:58.418Z,5.80
2018-02-27T02:09:27.361Z,6.03
2018-02-27T02:11:55.502Z,5.12
2018-02-27T02:14:23.647Z,5.15
2018-02-27T02:16:51.822Z,5.25
2018-02-27T02:19:20.734Z,6.05
2018-02-27T02:21:48.883Z,5.60
2018-02-27T02:24:17.927Z,5.00
2018-02-27T02:26:46.074Z,5.70
2018-02-27T02:29:14.217Z,6.03
2018-02-27T02:31:42.391Z,5.80
2018-02-27T02:34:11.299Z,5.62
2018-02-27T02:36:39.485Z,6.37
2018-02-27T02:39:07.626Z,6.15
2018-02-27T02:41:37.026Z,6.60
2018-02-27T02:44:05.215Z,6.80
2018-02-27T02:46:34.148Z,5.95
2018-02-27T02:49:02.292Z,6.40
2018-02-27T02:51:30.458Z,6.32
2018-02-27T02:53:58.597Z,6.65
2018-02-27T02:56:26.738Z,5.75
2018-02-27T02:58:54.908Z,5.75
2018-02-27T03:01:23.049Z,5.68
2018-02-27T03:03:51.233Z,5.97
2018-02-27T03:06:19.397Z,5.93
2018-02-27T03:08:47.533Z,5.68
2018-02-27T03:11:15.683Z,5.65
2018-02-27T03:13:43.854Z,5.95
2018-02-27T03:16:11.998Z,5.90
2018-02-27T03:18:40.140Z,6.57
2018-02-27T03:21:09.081Z,5.32
2018-02-27T03:23:37.230Z,6.80
2018-02-27T03:26:05.374Z,5.97
2018-02-27T03:28:34.318Z,6.22
2018-02-27T03:31:02.456Z,6.85
2018-02-27T03:33:30.600Z,5.87
2018-02-27T03:35:58.810Z,5.43
2018-02-27T03:38:26.961Z,5.95
2018-02-27T03:40:55.902Z,6.28
2018-02-27T03:43:24.045Z,5.72
2018-02-27T03:45:52.187Z,5.68
2018-02-27T03:48:21.130Z,5.82
2018-02-27T03:50:49.270Z,5.40
2018-02-27T03:53:17.412Z,5.93
2018-02-27T03:55:45.577Z,5.68
2018-02-27T03:58:13.724Z,6.00
2018-02-27T04:00:41.862Z,6.40
2018-02-27T04:03:10.026Z,6.87
2018-02-27T04:05:38.934Z,6.87
2018-02-27T04:08:07.097Z,5.50
2018-02-27T04:10:35.269Z,7.50
2018-02-27T04:13:03.411Z,7.10
2018-02-27T04:15:31.554Z,7.87
2018-02-27T04:17:59.734Z,8.95
2018-02-27T04:20:27.882Z,8.10
2018-02-27T04:22:56.033Z,8.13
2018-02-27T04:25:24.192Z,8.20
2018-02-27T04:27:53.102Z,8.27
2018-02-27T04:30:21.294Z,8.02
2018-02-27T04:32:49.451Z,8.65
2018-02-27T04:35:17.735Z,8.13
2018-02-27T04:37:45.882Z,8.07
2018-02-27T04:40:14.798Z,13.48
2018-02-27T04:42:42.958Z,9.07
2018-02-27T04:45:11.097Z,8.73
2018-02-27T04:47:39.432Z,7.53
2018-02-27T04:50:07.577Z,8.30
2018-02-27T04:52:35.713Z,7.60
2018-02-27T04:55:03.886Z,8.40
2018-02-27T04:57:32.026Z,8.90
2018-02-27T05:00:00.179Z,7.18
2018-02-27T05:02:28.814Z,7.55
2018-02-27T05:04:56.954Z,8.00
2018-02-27T05:07:25.130Z,7.22
2018-02-27T05:09:53.390Z,8.75
2018-02-27T05:12:21.530Z,7.75
2018-02-27T05:14:50.462Z,8.63
2018-02-27T05:17:18.606Z,7.90
2018-02-27T05:19:47.242Z,8.30
2018-02-27T05:22:15.466Z,7.28
2018-02-27T05:24:43.605Z,8.23
2018-02-27T05:27:11.749Z,8.82
2018-02-27T05:29:39.919Z,8.60
2018-02-27T05:32:08.062Z,9.82
2018-02-27T05:34:36.254Z,9.40
2018-02-27T05:37:04.386Z,9.10
2018-02-27T05:39:33.295Z,8.55
2018-02-27T05:42:01.801Z,7.35
2018-02-27T05:44:29.982Z,8.35
2018-02-27T05:46:58.119Z,8.18
2018-02-27T05:49:26.638Z,8.18
2018-02-27T05:51:54.898Z,9.07
2018-02-27T05:54:23.081Z,8.90
2018-02-27T05:56:51.250Z,8.45
2018-02-27T05:59:19.398Z,8.65
2018-02-27T06:01:47.554Z,7.90
2018-02-27T06:04:15.710Z,8.85
2018-02-27T06:06:45.238Z,10.68
2018-02-27T06:09:13.408Z,8.77
2018-02-27T06:11:41.601Z,8.25
2018-02-27T06:14:09.750Z,6.53
2018-02-27T06:16:37.929Z,7.70
2018-02-27T06:19:06.079Z,8.57
2018-02-27T06:21:34.988Z,8.07
2018-02-27T06:24:03.150Z,11.32
2018-02-27T06:26:32.057Z,8.00
2018-02-27T06:29:00.227Z,9.20
2018-02-27T06:31:28.369Z,9.05
2018-02-27T06:33:56.598Z,9.52
2018-02-27T06:36:24.739Z,9.18
2018-02-27T06:38:52.877Z,7.80
2018-02-27T06:41:21.049Z,8.65
2018-02-27T06:43:49.206Z,8.50
2018-02-27T06:46:17.347Z,8.63
2018-02-27T06:48:45.520Z,8.10
2018-02-27T06:51:13.665Z,9.43
2018-02-27T06:53:42.586Z,9.43
2018-02-27T06:56:10.763Z,8.93
2018-02-27T06:58:38.910Z,8.73
2018-02-27T07:01:07.105Z,8.40
2018-02-27T07:03:35.290Z,6.35
2018-02-27T07:06:03.426Z,7.05
2018-02-27T07:08:31.592Z,7.55
2018-02-27T07:11:00.501Z,6.20
2018-02-27T07:13:28.639Z,6.20
2018-02-27T07:15:56.861Z,7.05
2018-02-27T07:18:24.998Z,6.97
2018-02-27T07:20:53.902Z,6.90
2018-02-27T07:23:22.068Z,7.57
2018-02-27T07:25:50.973Z,6.12
2018-02-27T07:28:19.114Z,6.90
2018-02-27T07:30:48.050Z,6.20
2018-02-27T07:33:16.186Z,5.55
2018-02-27T07:35:45.122Z,6.53
2018-02-27T07:38:13.269Z,6.12
2018-02-27T07:40:41.410Z,23.95
2018-02-27T07:43:10.354Z,6.78
2018-02-27T07:45:38.501Z,5.03
2018-02-27T07:48:06.647Z,6.60
2018-02-27T07:50:35.569Z,5.78
2018-02-27T07:53:03.749Z,5.05
2018-02-27T07:55:31.889Z,5.40
2018-02-27T07:58:00.818Z,5.90
2018-02-27T08:00:28.990Z,5.72
2018-02-27T08:02:57.130Z,5.90
2018-02-27T08:05:26.094Z,5.95
2018-02-27T08:07:54.330Z,6.25
2018-02-27T08:10:22.507Z,4.50
2018-02-27T08:12:50.962Z,5.68
2018-02-27T08:15:19.144Z,5.15
2018-02-27T08:17:47.281Z,6.05
2018-02-27T08:20:16.190Z,5.82
2018-02-27T08:22:45.137Z,4.47
2018-02-27T08:25:13.289Z,4.70
2018-02-27T08:27:41.475Z,4.78
2018-02-27T08:30:09.619Z,4.55
2018-02-27T08:32:37.766Z,5.00
2018-02-27T08:35:06.858Z,4.97
2018-02-27T08:37:35.813Z,5.53
2018-02-27T08:40:03.942Z,5.72
2018-02-27T08:42:32.118Z,4.75
2018-02-27T08:45:00.280Z,4.62
2018-02-27T08:47:28.424Z,4.65
2018-02-27T08:49:56.590Z,4.00
2018-02-27T08:52:24.734Z,4.80
2018-02-27T08:54:52.886Z,5.65
2018-02-27T08:57:21.401Z,3.83
2018-02-27T08:59:49.579Z,5.03
2018-02-27T09:02:17.727Z,4.18
2018-02-27T09:04:45.879Z,4.05
2018-02-27T09:07:14.064Z,4.20
2018-02-27T09:09:42.206Z,3.65
2018-02-27T09:12:10.354Z,4.70
2018-02-27T09:14:38.539Z,4.18
2018-02-27T09:17:07.466Z,4.45
2018-02-27T09:19:35.646Z,3.60
2018-02-27T09:22:03.814Z,3.90
2018-02-27T09:24:31.954Z,4.20
2018-02-27T09:27:00.902Z,4.85
2018-02-27T09:29:29.046Z,5.60
2018-02-27T09:31:57.187Z,4.30
2018-02-27T09:34:26.121Z,3.50
2018-02-27T09:36:54.266Z,5.35
2018-02-27T09:39:22.413Z,4.72
2018-02-27T09:41:51.375Z,4.22
2018-02-27T09:44:19.524Z,4.80
2018-02-27T09:46:47.699Z,3.35
2018-02-27T09:49:15.974Z,4.25
2018-02-27T09:51:44.144Z,3.30
2018-02-27T09:54:12.317Z,3.97
2018-02-27T09:56:40.483Z,4.55
2018-02-27T09:59:08.630Z,4.00
2018-02-27T10:01:38.100Z,4.90
2018-02-27T10:04:06.232Z,4.53
2018-02-27T10:06:34.377Z,4.47
2018-02-27T10:09:03.295Z,5.30
2018-02-27T10:11:31.458Z,4.37
2018-02-27T10:13:59.618Z,4.45
2018-02-27T10:16:27.753Z,4.60
2018-02-27T10:18:55.910Z,3.95
2018-02-27T10:21:24.323Z,3.90
2018-02-27T10:23:53.251Z,4.18
2018-02-27T10:26:21.387Z,5.03
2018-02-27T10:28:50.286Z,4.00
2018-02-27T10:31:19.207Z,3.97
2018-02-27T10:33:47.347Z,4.60
2018-02-27T10:36:16.265Z,3.62
2018-02-27T10:38:45.120Z,3.97
2018-02-27T10:41:14.053Z,4.60
2018-02-27T10:43:42.222Z,4.45
2018-02-27T10:46:10.359Z,4.43
2018-02-27T10:48:39.270Z,4.30
2018-02-27T10:51:07.455Z,4.18
2018-02-27T10:53:35.593Z,3.67
2018-02-27T10:56:04.490Z,3.95
2018-02-27T10:58:33.418Z,3.92
2018-02-27T11:01:02.341Z,4.05
2018-02-27T11:03:30.483Z,4.60
2018-02-27T11:05:58.625Z,5.10
2018-02-27T11:08:26.795Z,5.00
2018-02-27T11:10:54.932Z,7.87
2018-02-27T11:13:23.062Z,4.50
2018-02-27T11:15:51.222Z,4.65
2018-02-27T11:18:19.358Z,4.03
2018-02-27T11:20:47.485Z,5.10
2018-02-27T11:23:15.670Z,4.87
2018-02-27T11:25:43.805Z,4.95
2018-02-27T11:28:11.947Z,5.35
2018-02-27T11:30:40.123Z,5.35
2018-02-27T11:33:09.037Z,5.80
2018-02-27T11:35:37.994Z,12.55
2018-02-27T11:38:06.234Z,9.45
2018-02-27T11:40:34.591Z,6.82
2018-02-27T11:43:02.729Z,5.53
2018-02-27T11:45:31.682Z,8.15
2018-02-27T11:48:00.306Z,10.10
2018-02-27T11:50:29.218Z,10.27
2018-02-27T11:52:57.371Z,6.77
2018-02-27T11:55:26.291Z,7.17
2018-02-27T11:57:54.454Z,6.83
2018-02-27T12:00:22.581Z,6.97
2018-02-27T12:02:51.654Z,7.63
2018-02-27T12:05:19.866Z,5.73
2018-02-27T12:07:47.986Z,5.57
2018-02-27T12:10:16.155Z,6.77
2018-02-27T12:12:45.062Z,5.23
2018-02-27T12:15:13.326Z,6.47
2018-02-27T12:17:41.478Z,7.67
2018-02-27T12:20:09.610Z,10.90
2018-02-27T12:22:37.758Z,9.37
2018-02-27T12:25:05.902Z,14.47
2018-02-27T12:27:34.071Z,19.97
2018-02-27T12:30:02.214Z,6.23
2018-02-27T12:32:31.124Z,5.40
2018-02-27T12:34:59.286Z,6.00
2018-02-27T12:37:28.737Z,5.57
2018-02-27T12:39:56.915Z,5.73
2018-02-27T12:42:25.172Z,4.97
2018-02-27T12:44:53.358Z,5.37
2018-02-27T12:47:21.620Z,5.43
2018-02-27T12:49:49.797Z,7.97
2018-02-27T12:52:17.942Z,18.10
2018-02-27T12:54:46.134Z,5.07
2018-02-27T12:57:14.266Z,6.43
2018-02-27T12:59:43.183Z,4.70
2018-02-27T13:02:11.347Z,5.50
2018-02-27T13:04:39.487Z,4.40
2018-02-27T13:07:07.665Z,4.63
2018-02-27T13:09:35.913Z,5.97
2018-02-27T13:12:04.050Z,7.80
2018-02-27T13:14:32.246Z,4.80
2018-02-27T13:17:00.390Z,4.90
2018-02-27T13:19:28.531Z,4.30
2018-02-27T13:21:56.762Z,4.00
2018-02-27T13:24:24.902Z,5.37
2018-02-27T13:26:53.076Z,9.07
2018-02-27T13:29:21.406Z,9.87
2018-02-27T13:31:49.570Z,7.10
2018-02-27T13:34:17.750Z,3.53
2018-02-27T13:36:45.899Z,3.50
2018-02-27T13:39:14.050Z,3.50
2018-02-27T13:41:42.206Z,9.30
2018-02-27T13:44:11.662Z,5.25
2018-02-27T13:46:39.821Z,4.80
2018-02-27T13:49:08.053Z,5.93
2018-02-27T13:51:36.170Z,4.22
2018-02-27T13:54:04.307Z,5.40
2018-02-27T13:56:32.488Z,4.50
2018-02-27T13:59:00.635Z,5.15
2018-02-27T14:01:29.547Z,4.50
2018-02-27T14:03:57.721Z,4.62
2018-02-27T14:06:25.865Z,4.15
2018-02-27T14:08:54.798Z,4.90
2018-02-27T14:11:22.957Z,5.75
2018-02-27T14:13:51.115Z,4.65
2018-02-27T14:16:20.022Z,5.32
2018-02-27T14:18:48.186Z,5.05
2018-02-27T14:21:16.350Z,4.00
2018-02-27T14:23:45.255Z,4.22
2018-02-27T14:26:14.182Z,4.05
2018-02-27T14:28:42.979Z,4.70
2018-02-27T14:31:11.122Z,4.07
2018-02-27T14:33:39.325Z,4.28
2018-02-27T14:36:07.493Z,4.32
2018-02-27T14:38:35.635Z,3.85
2018-02-27T14:41:03.793Z,4.20
2018-02-27T14:43:32.093Z,5.03
2018-02-27T14:46:00.380Z,3.80
2018-02-27T14:48:28.538Z,3.47
2018-02-27T14:50:56.727Z,4.00
2018-02-27T14:53:25.002Z,4.37
2018-02-27T14:55:53.154Z,4.35
2018-02-27T14:58:21.318Z,3.97
2018-02-27T15:00:49.525Z,4.90
2018-02-27T15:03:17.702Z,5.15
2018-02-27T15:05:45.838Z,4.03
2018-02-27T15:08:14.011Z,4.77
2018-02-27T15:10:42.205Z,4.30
2018-02-27T15:13:10.440Z,7.03
2018-02-27T15:15:39.399Z,10.03
2018-02-27T15:18:07.546Z,9.90
2018-02-27T15:20:35.686Z,4.37
2018-02-27T15:23:03.897Z,4.20
2018-02-27T15:25:32.443Z,6.17
2018-02-27T15:28:00.599Z,7.37
2018-02-27T15:30:29.533Z,10.10
2018-02-27T15:32:57.706Z,7.10
2018-02-27T15:35:25.878Z,8.87
2018-02-27T15:37:54.046Z,8.23
2018-02-27T15:40:22.183Z,8.87
2018-02-27T15:42:51.086Z,7.03
2018-02-27T15:45:19.907Z,7.30
2018-02-27T15:47:48.047Z,5.40
2018-02-27T15:50:16.281Z,6.70
2018-02-27T15:52:44.425Z,12.15
2018-02-27T15:55:12.598Z,13.07
2018-02-27T15:57:41.595Z,9.07
2018-02-27T16:00:09.722Z,6.15
2018-02-27T16:02:38.658Z,6.37
2018-02-27T16:05:06.805Z,7.55
2018-02-27T16:07:34.942Z,6.18
2018-02-27T16:10:03.090Z,20.88
2018-02-27T16:12:31.299Z,16.17
2018-02-27T16:15:00.308Z,10.80
2018-02-27T16:17:28.442Z,6.62
2018-02-27T16:19:56.678Z,7.55
2018-02-27T16:22:24.818Z,6.82
2018-02-27T16:24:53.014Z,8.23
2018-02-27T16:27:21.932Z,10.77
2018-02-27T16:29:50.079Z,8.85
2018-02-27T16:32:18.222Z,13.45
2018-02-27T16:34:47.134Z,16.27
2018-02-27T16:37:15.294Z,14.77
2018-02-27T16:39:43.433Z,16.25
2018-02-27T16:42:11.614Z,9.85
2018-02-27T16:44:39.758Z,11.32
2018-02-27T16:47:07.897Z,11.85
2018-02-27T16:49:36.185Z,9.45
2018-02-27T16:52:04.529Z,9.80
2018-02-27T16:54:34.269Z,10.52
2018-02-27T16:57:02.438Z,8.65
2018-02-27T16:59:30.574Z,6.82
2018-02-27T17:01:59.493Z,8.85
2018-02-27T17:04:27.635Z,9.32
2018-02-27T17:06:56.571Z,9.02
2018-02-27T17:09:24.715Z,10.43
2018-02-27T17:11:52.914Z,9.90
2018-02-27T17:14:21.110Z,10.18
2018-02-27T17:16:49.273Z,9.90
2018-02-27T17:19:17.414Z,9.02
2018-02-27T17:21:45.604Z,8.98
2018-02-27T17:24:13.750Z,10.25
2018-02-27T17:26:41.952Z,12.50
2018-02-27T17:29:10.119Z,12.48
2018-02-27T17:31:38.263Z,9.77
2018-02-27T17:34:07.195Z,11.25
2018-02-27T17:36:35.357Z,12.15
2018-02-27T17:39:03.550Z,11.90
2018-02-27T17:41:31.725Z,11.48
2018-02-27T17:43:59.871Z,12.85
2018-02-27T17:46:28.030Z,10.98
2018-02-27T17:48:56.177Z,10.40
2018-02-27T17:51:24.341Z,10.05
2018-02-27T17:53:52.544Z,10.18
2018-02-27T17:56:20.695Z,9.60
2018-02-27T17:58:49.602Z,9.57
2018-02-27T18:01:17.818Z,10.38
2018-02-27T18:03:45.961Z,9.02
2018-02-27T18:06:14.112Z,10.40
2018-02-27T18:08:43.048Z,9.98
2018-02-27T18:11:11.190Z,9.48
2018-02-27T18:13:39.362Z,10.07
2018-02-27T18:16:07.525Z,9.32
2018-02-27T18:18:36.474Z,10.07
2018-02-27T18:21:04.640Z,10.55
2018-02-27T18:23:32.780Z,10.43
2018-02-27T18:26:00.942Z,9.38
2018-02-27T18:28:29.104Z,9.95
2018-02-27T18:30:58.014Z,11.35
2018-02-27T18:33:26.187Z,9.70
2018-02-27T18:35:54.422Z,9.23
2018-02-27T18:38:22.566Z,10.10
2018-02-27T18:40:50.722Z,10.48
2018-02-27T18:43:18.874Z,8.93
2018-02-27T18:45:47.118Z,7.43
2018-02-27T18:48:16.026Z,7.97
2018-02-27T18:50:44.958Z,8.07
2018-02-27T18:53:13.118Z,9.65
2018-02-27T18:55:41.264Z,9.32
2018-02-27T18:58:09.411Z,9.25
2018-02-27T19:00:37.585Z,9.02
2018-02-27T19:03:06.402Z,9.05
2018-02-27T19:05:34.545Z,8.73
2018-02-27T19:08:02.715Z,10.45
2018-02-27T19:10:31.624Z,9.23
2018-02-27T19:13:00.554Z,10.10
2018-02-27T19:15:28.736Z,17.27
2018-02-27T19:17:56.895Z,20.35
2018-02-27T19:20:25.068Z,11.82
2018-02-27T19:22:53.349Z,16.25
2018-02-27T19:25:21.517Z,16.40
2018-02-27T19:27:49.677Z,16.25
2018-02-27T19:30:17.838Z,12.65
2018-02-27T19:32:46.014Z,14.13
2018-02-27T19:35:14.166Z,14.35
2018-02-27T19:37:43.078Z,18.98
2018-02-27T19:40:11.285Z,13.75
2018-02-27T19:42:39.450Z,12.27
2018-02-27T19:45:07.700Z,15.20
2018-02-27T19:47:35.878Z,18.65
2018-02-27T19:50:04.027Z,14.25
2018-02-27T19:52:33.024Z,12.57
2018-02-27T19:55:01.967Z,15.57
2018-02-27T19:57:30.122Z,13.43
2018-02-27T19:59:58.298Z,17.40
2018-02-27T20:02:26.502Z,12.25
2018-02-27T20:04:54.649Z,13.90
2018-02-27T20:07:22.814Z,13.20
2018-02-27T20:09:51.006Z,13.18
2018-02-27T20:12:19.157Z,11.10
2018-02-27T20:14:47.313Z,11.07
2018-02-27T20:17:15.485Z,13.65
2018-02-27T20:19:43.632Z,14.82
2018-02-27T20:22:12.573Z,11.38
2018-02-27T20:24:40.731Z,9.52
2018-02-27T20:27:08.889Z,13.27
2018-02-27T20:29:37.058Z,12.55
2018-02-27T20:32:05.214Z,11.10
2018-02-27T20:34:34.131Z,10.10
2018-02-27T20:37:02.624Z,9.77
2018-02-27T20:39:30.774Z,10.27
2018-02-27T20:41:58.915Z,8.45
2018-02-27T20:44:27.083Z,9.73
2018-02-27T20:46:55.322Z,9.00
2018-02-27T20:49:23.457Z,7.95
2018-02-27T20:51:52.395Z,7.40
2018-02-27T20:54:20.538Z,8.68
2018-02-27T20:56:48.695Z,8.20
2018-02-27T20:59:17.742Z,7.55
2018-02-27T21:01:45.884Z,7.90
2018-02-27T21:04:14.025Z,6.10
2018-02-27T21:06:42.954Z,7.12
2018-02-27T21:09:11.091Z,7.80
2018-02-27T21:11:40.018Z,7.35
2018-02-27T21:14:08.188Z,6.80
2018-02-27T21:16:36.371Z,7.20
2018-02-27T21:19:04.526Z,8.98
2018-02-27T21:21:32.677Z,7.35
2018-02-27T21:24:01.961Z,8.40
2018-02-27T21:26:31.122Z,7.60
2018-02-27T21:28:59.258Z,7.82
2018-02-27T21:31:27.396Z,7.78
2018-02-27T21:33:55.573Z,10.70
2018-02-27T21:36:24.486Z,11.77
2018-02-27T21:38:52.689Z,12.73
2018-02-27T21:41:20.858Z,8.52
2018-02-27T21:43:49.001Z,15.75
2018-02-27T21:46:17.227Z,14.75
2018-02-27T21:48:45.344Z,13.00
2018-02-27T21:51:14.253Z,10.63
2018-02-27T21:53:42.422Z,9.77
2018-02-27T21:56:10.562Z,9.70
2018-02-27T21:58:38.708Z,13.52
2018-02-27T22:01:06.869Z,12.10
2018-02-27T22:03:35.134Z,12.45
2018-02-27T22:06:03.277Z,12.52
2018-02-27T22:08:31.426Z,12.02
2018-02-27T22:10:59.609Z,8.85
2018-02-27T22:13:28.510Z,8.23
2018-02-27T22:15:56.655Z,8.75
2018-02-27T22:18:24.878Z,8.70
2018-02-27T22:20:53.057Z,9.15
2018-02-27T22:23:21.215Z,14.27
2018-02-27T22:25:49.378Z,9.65
2018-02-27T22:28:17.522Z,11.55
2018-02-27T22:30:45.669Z,9.60
2018-02-27T22:33:13.919Z,9.68
2018-02-27T22:35:42.054Z,9.50
2018-02-27T22:38:10.980Z,10.55
2018-02-27T22:40:39.162Z,9.90
2018-02-27T22:43:07.323Z,9.23
2018-02-27T22:45:35.509Z,11.23
2018-02-27T22:48:03.668Z,10.88
2018-02-27T22:50:32.226Z,11.68
2018-02-27T22:53:01.159Z,9.05
2018-02-27T22:55:29.323Z,9.32
2018-02-27T22:57:57.542Z,10.10
2018-02-27T23:00:40.565Z,11.23
2018-02-27T23:03:08.761Z,11.27
2018-02-27T23:05:36.967Z,10.57
2018-02-27T23:08:05.148Z,9.98
2018-02-27T23:10:33.312Z,10.45
2018-02-27T23:13:01.485Z,9.25
2018-02-27T23:15:29.626Z,9.73
2018-02-27T23:17:57.830Z,10.00
2018-02-27T23:20:26.007Z,11.23
2018-02-27T23:22:54.171Z,9.05
2018-02-27T23:25:29.707Z,9.68
2018-02-27T23:27:58.745Z,9.63
2018-02-27T23:30:27.242Z,11.10
2018-02-27T23:32:58.466Z,11.12
2018-02-27T23:35:27.049Z,10.73
2018-02-27T23:37:55.206Z,10.10
2018-02-27T23:40:23.376Z,10.35
2018-02-27T23:42:51.532Z,9.68
2018-02-27T23:45:19.713Z,8.55
2018-02-27T23:47:47.899Z,9.73
2018-02-27T23:50:16.041Z,10.77
2018-02-27T23:52:44.190Z,12.07
2018-02-27T23:55:13.218Z,10.27
2018-02-27T23:57:41.366Z,9.52
